sensor_id;sensor_type;location;lat;lon;timestamp;pressure;altitude;pressure_sealevel;temperature;humidity
6938;BME280;40040;42.706;23.372;2023-10-09T00:00:58;148928.88;;;19.29;69.26
6938;BME280;40040;42.706;23.372;2023-10-09T00:03:32;148937.63;;;19.33;69.21
6938;BME280;40040;42.706;23.372;2023-10-09T00:06:02;148913.94;;;19.23;69.08
6938;BME280;40040;42.706;23.372;2023-10-09T00:08:30;148933.91;;;19.31;69.36
6938;BME280;40040;42.706;23.372;2023-10-09T00:10:58;148933.91;;;19.31;69.39
6938;BME280;40040;42.706;23.372;2023-10-09T00:13:39;148889.13;;;19.13;69.33
6938;BME280;40040;42.706;23.372;2023-10-09T00:16:16;148909.03;;;19.21;69.81
6938;BME280;40040;42.706;23.372;2023-10-09T00:18:48;148885.41;;;19.12;69.96
6938;BME280;40040;42.706;23.372;2023-10-09T00:21:15;148881.69;;;19.10;70.20
6938;BME280;40040;42.706;23.372;2023-10-09T00:23:46;148838.22;;;18.92;70.54
6938;BME280;40040;42.706;23.372;2023-10-09T00:26:20;148874.25;;;19.07;70.48
6938;BME280;40040;42.706;23.372;2023-10-09T00:28:48;148874.25;;;19.07;70.31
6938;BME280;40040;42.706;23.372;2023-10-09T00:31:18;148839.50;;;18.93;70.16
6938;BME280;40040;42.706;23.372;2023-10-09T00:33:55;148863.06;;;19.02;70.48
6938;BME280;40040;42.706;23.372;2023-10-09T00:36:33;148841.94;;;18.94;70.44
6938;BME280;40040;42.706;23.372;2023-10-09T00:39:15;148792.31;;;18.74;71.04
6938;BME280;40040;42.706;23.372;2023-10-09T00:41:48;148789.81;;;18.73;70.97
6938;BME280;40040;42.706;23.372;2023-10-09T00:44:18;148750.09;;;18.57;71.19
6938;BME280;40040;42.706;23.372;2023-10-09T00:46:46;148769.97;;;18.65;71.29
6938;BME280;40040;42.706;23.372;2023-10-09T00:49:13;148758.78;;;18.60;71.27
6938;BME280;40040;42.706;23.372;2023-10-09T00:51:45;148683.03;;;18.30;71.73
6938;BME280;40040;42.706;23.372;2023-10-09T00:54:21;148725.28;;;18.47;72.29
6938;BME280;40040;42.706;23.372;2023-10-09T00:56:54;148712.88;;;18.42;72.31
6938;BME280;40040;42.706;23.372;2023-10-09T00:59:32;148683.03;;;18.30;72.63
6938;BME280;40040;42.706;23.372;2023-10-09T01:02:05;148668.13;;;18.24;72.92
6938;BME280;40040;42.706;23.372;2023-10-09T01:04:33;148643.31;;;18.14;73.55
6938;BME280;40040;42.706;23.372;2023-10-09T01:07:04;148635.88;;;18.11;73.85
6938;BME280;40040;42.706;23.372;2023-10-09T01:09:34;148638.34;;;18.12;73.61
6938;BME280;40040;42.706;23.372;2023-10-09T01:12:03;148629.66;;;18.08;73.55
6938;BME280;40040;42.706;23.372;2023-10-09T01:14:31;148586.25;;;17.90;74.02
6938;BME280;40040;42.706;23.372;2023-10-09T01:17:02;148587.50;;;17.91;74.33
6938;BME280;40040;42.706;23.372;2023-10-09T01:19:34;148551.56;;;17.76;74.82
6938;BME280;40040;42.706;23.372;2023-10-09T01:22:01;148561.44;;;17.80;75.17
6938;BME280;40040;42.706;23.372;2023-10-09T01:24:31;148560.25;;;17.80;74.43
6938;BME280;40040;42.706;23.372;2023-10-09T01:27:00;148496.94;;;17.54;73.79
6938;BME280;40040;42.706;23.372;2023-10-09T01:29:30;148524.25;;;17.65;72.65
6938;BME280;40040;42.706;23.372;2023-10-09T01:31:57;148477.13;;;17.46;72.60
6938;BME280;40040;42.706;23.372;2023-10-09T01:34:27;148472.09;;;17.44;72.29
6938;BME280;40040;42.706;23.372;2023-10-09T01:37:04;148482.09;;;17.48;71.93
6938;BME280;40040;42.706;23.372;2023-10-09T01:39:38;148452.28;;;17.36;72.47
6938;BME280;40040;42.706;23.372;2023-10-09T01:42:07;148408.88;;;17.19;72.25
6938;BME280;40040;42.706;23.372;2023-10-09T01:44:35;148432.41;;;17.28;72.35
6938;BME280;40040;42.706;23.372;2023-10-09T01:47:09;148431.16;;;17.28;72.04
6938;BME280;40040;42.706;23.372;2023-10-09T01:49:40;148434.91;;;17.29;71.94
6938;BME280;40040;42.706;23.372;2023-10-09T01:52:09;148421.28;;;17.24;71.95
6938;BME280;40040;42.706;23.372;2023-10-09T01:54:38;148432.41;;;17.28;71.93
6938;BME280;40040;42.706;23.372;2023-10-09T01:57:07;148415.06;;;17.21;72.43
6938;BME280;40040;42.706;23.372;2023-10-09T01:59:37;148402.66;;;17.16;72.33
6938;BME280;40040;42.706;23.372;2023-10-09T02:02:13;148385.31;;;17.09;72.25
6938;BME280;40040;42.706;23.372;2023-10-09T02:04:52;148375.38;;;17.05;72.64
6938;BME280;40040;42.706;23.372;2023-10-09T02:07:20;148367.94;;;17.02;73.25
6938;BME280;40040;42.706;23.372;2023-10-09T02:09:56;148336.94;;;16.89;74.33
6938;BME280;40040;42.706;23.372;2023-10-09T02:12:23;148325.81;;;16.85;74.35
6938;BME280;40040;42.706;23.372;2023-10-09T02:14:50;148320.84;;;16.83;74.49
6938;BME280;40040;42.706;23.372;2023-10-09T02:17:19;148301.03;;;16.75;75.07
6938;BME280;40040;42.706;23.372;2023-10-09T02:19:50;148251.41;;;16.55;75.43
6938;BME280;40040;42.706;23.372;2023-10-09T02:22:18;148263.81;;;16.60;75.36
6938;BME280;40040;42.706;23.372;2023-10-09T02:24:45;148198.13;;;16.33;76.01
6938;BME280;40040;42.706;23.372;2023-10-09T02:27:25;148224.13;;;16.44;76.15
6938;BME280;40040;42.706;23.372;2023-10-09T02:30:10;148201.81;;;16.35;76.79
6938;BME280;40040;42.706;23.372;2023-10-09T02:32:45;148177.06;;;16.25;77.08
6938;BME280;40040;42.706;23.372;2023-10-09T02:35:18;148147.28;;;16.13;76.89
6938;BME280;40040;42.706;23.372;2023-10-09T02:37:57;147962.69;;;15.38;77.16
6938;BME280;40040;42.706;23.372;2023-10-09T02:40:27;148128.72;;;16.05;76.54
6938;BME280;40040;42.706;23.372;2023-10-09T02:42:59;148113.84;;;15.99;76.27
6938;BME280;40040;42.706;23.372;2023-10-09T02:45:26;148099.00;;;15.93;76.56
6938;BME280;40040;42.706;23.372;2023-10-09T02:48:08;148101.44;;;15.94;75.62
6938;BME280;40040;42.706;23.372;2023-10-09T02:50:36;148075.44;;;15.84;76.80
6938;BME280;40040;42.706;23.372;2023-10-09T02:53:03;148066.75;;;15.80;76.27
6938;BME280;40040;42.706;23.372;2023-10-09T02:55:35;148048.22;;;15.72;76.66
6938;BME280;40040;42.706;23.372;2023-10-09T02:58:05;148002.38;;;15.54;77.71
6938;BME280;40040;42.706;23.372;2023-10-09T03:00:36;147949.09;;;15.32;78.26
6938;BME280;40040;42.706;23.372;2023-10-09T03:03:03;147978.84;;;15.44;78.22
6938;BME280;40040;42.706;23.372;2023-10-09T03:05:32;147928.00;;;15.24;78.02
6938;BME280;40040;42.706;23.372;2023-10-09T03:07:59;147981.31;;;15.45;78.19
6938;BME280;40040;42.706;23.372;2023-10-09T03:10:27;147975.16;;;15.43;77.90
6938;BME280;40040;42.706;23.372;2023-10-09T03:12:54;147945.34;;;15.31;77.69
6938;BME280;40040;42.706;23.372;2023-10-09T03:15:22;147864.88;;;14.98;77.65
6938;BME280;40040;42.706;23.372;2023-10-09T03:17:49;147954.00;;;15.34;78.05
6938;BME280;40040;42.706;23.372;2023-10-09T03:20:16;147926.81;;;15.23;78.34
6938;BME280;40040;42.706;23.372;2023-10-09T03:22:44;147867.38;;;14.99;78.83
6938;BME280;40040;42.706;23.372;2023-10-09T03:25:13;147892.13;;;15.09;79.39
6938;BME280;40040;42.706;23.372;2023-10-09T03:27:45;147889.63;;;15.08;79.12
6938;BME280;40040;42.706;23.372;2023-10-09T03:30:13;147904.50;;;15.14;78.83
6938;BME280;40040;42.706;23.372;2023-10-09T03:32:49;147897.09;;;15.11;79.06
6938;BME280;40040;42.706;23.372;2023-10-09T03:35:17;147887.16;;;15.07;79.17
6938;BME280;40040;42.706;23.372;2023-10-09T03:37:52;147874.78;;;15.02;78.85
6938;BME280;40040;42.706;23.372;2023-10-09T03:40:22;147788.16;;;14.67;78.32
6938;BME280;40040;42.706;23.372;2023-10-09T03:42:50;147879.75;;;15.04;78.58
6938;BME280;40040;42.706;23.372;2023-10-09T03:45:17;147842.59;;;14.89;78.78
6938;BME280;40040;42.706;23.372;2023-10-09T03:47:55;147830.22;;;14.84;79.38
6938;BME280;40040;42.706;23.372;2023-10-09T03:50:28;147796.81;;;14.71;80.04
6938;BME280;40040;42.706;23.372;2023-10-09T03:53:04;147773.28;;;14.61;80.20
6938;BME280;40040;42.706;23.372;2023-10-09T03:55:34;147696.56;;;14.30;80.78
6938;BME280;40040;42.706;23.372;2023-10-09T03:58:04;147728.75;;;14.43;80.92
6938;BME280;40040;42.706;23.372;2023-10-09T04:00:32;147708.94;;;14.35;81.16
6938;BME280;40040;42.706;23.372;2023-10-09T04:03:14;147597.53;;;13.90;81.94
6938;BME280;40040;42.706;23.372;2023-10-09T04:05:42;147699.06;;;14.31;82.17
6938;BME280;40040;42.706;23.372;2023-10-09T04:08:10;147686.69;;;14.26;81.42
6938;BME280;40040;42.706;23.372;2023-10-09T04:10:45;147656.97;;;14.14;81.12
6938;BME280;40040;42.706;23.372;2023-10-09T04:13:18;147691.59;;;14.28;80.98
6938;BME280;40040;42.706;23.372;2023-10-09T04:15:49;147702.78;;;14.32;80.49
6938;BME280;40040;42.706;23.372;2023-10-09T04:18:20;147694.09;;;14.29;80.87
6938;BME280;40040;42.706;23.372;2023-10-09T04:20:54;147634.69;;;14.05;79.95
6938;BME280;40040;42.706;23.372;2023-10-09T04:23:39;147685.41;;;14.25;80.37
6938;BME280;40040;42.706;23.372;2023-10-09T04:26:19;147671.78;;;14.20;80.27
6938;BME280;40040;42.706;23.372;2023-10-09T04:28:46;147669.31;;;14.19;81.10
6938;BME280;40040;42.706;23.372;2023-10-09T04:31:16;147637.13;;;14.06;80.88
6938;BME280;40040;42.706;23.372;2023-10-09T04:33:46;147674.28;;;14.21;80.67
6938;BME280;40040;42.706;23.372;2023-10-09T04:36:40;147679.19;;;14.23;79.69
6938;BME280;40040;42.706;23.372;2023-10-09T04:39:14;147671.78;;;14.20;78.81
6938;BME280;40040;42.706;23.372;2023-10-09T04:42:00;147648.31;;;14.10;79.11
6938;BME280;40040;42.706;23.372;2023-10-09T04:44:41;147581.47;;;13.83;79.81
6938;BME280;40040;42.706;23.372;2023-10-09T04:47:28;147607.44;;;13.94;79.41
6938;BME280;40040;42.706;23.372;2023-10-09T04:50:03;147612.41;;;13.96;79.21
6938;BME280;40040;42.706;23.372;2023-10-09T04:52:37;147612.41;;;13.96;79.34
6938;BME280;40040;42.706;23.372;2023-10-09T04:55:18;147622.31;;;14.00;78.77
6938;BME280;40040;42.706;23.372;2023-10-09T04:57:50;147635.88;;;14.05;77.63
6938;BME280;40040;42.706;23.372;2023-10-09T05:00:28;147640.84;;;14.07;76.96
6938;BME280;40040;42.706;23.372;2023-10-09T05:03:12;147632.19;;;14.04;77.33
6938;BME280;40040;42.706;23.372;2023-10-09T05:05:52;147639.63;;;14.07;76.61
6938;BME280;40040;42.706;23.372;2023-10-09T05:08:26;147605.00;;;13.93;76.80
6938;BME280;40040;42.706;23.372;2023-10-09T05:10:56;147612.41;;;13.96;76.11
6938;BME280;40040;42.706;23.372;2023-10-09T05:13:41;147576.53;;;13.81;75.58
6938;BME280;40040;42.706;23.372;2023-10-09T05:16:23;147609.91;;;13.95;75.60
6938;BME280;40040;42.706;23.372;2023-10-09T05:18:52;147569.13;;;13.78;75.95
6938;BME280;40040;42.706;23.372;2023-10-09T05:21:24;147570.38;;;13.79;76.11
6938;BME280;40040;42.706;23.372;2023-10-09T05:24:03;147567.88;;;13.78;76.07
6938;BME280;40040;42.706;23.372;2023-10-09T05:26:45;147565.41;;;13.77;75.57
6938;BME280;40040;42.706;23.372;2023-10-09T05:29:19;147570.38;;;13.79;75.20
6938;BME280;40040;42.706;23.372;2023-10-09T05:32:00;147570.38;;;13.79;74.79
6938;BME280;40040;42.706;23.372;2023-10-09T05:34:30;147587.69;;;13.86;74.22
6938;BME280;40040;42.706;23.372;2023-10-09T05:37:02;147545.59;;;13.69;73.98
6938;BME280;40040;42.706;23.372;2023-10-09T05:39:43;147603.75;;;13.92;73.44
6938;BME280;40040;42.706;23.372;2023-10-09T05:42:31;147606.19;;;13.93;72.96
6938;BME280;40040;42.706;23.372;2023-10-09T05:45:12;147580.22;;;13.83;72.59
6938;BME280;40040;42.706;23.372;2023-10-09T05:47:57;147629.72;;;14.03;71.55
6938;BME280;40040;42.706;23.372;2023-10-09T05:50:32;147629.72;;;14.03;71.06
6938;BME280;40040;42.706;23.372;2023-10-09T05:53:04;147639.63;;;14.07;70.78
6938;BME280;40040;42.706;23.372;2023-10-09T05:55:35;147639.63;;;14.07;69.62
6938;BME280;40040;42.706;23.372;2023-10-09T05:58:34;147665.63;;;14.17;69.34
6938;BME280;40040;42.706;23.372;2023-10-09T06:01:23;147701.50;;;14.32;68.50
6938;BME280;40040;42.706;23.372;2023-10-09T06:04:08;147732.47;;;14.44;67.32
6938;BME280;40040;42.706;23.372;2023-10-09T06:06:41;147686.69;;;14.26;66.63
6938;BME280;40040;42.706;23.372;2023-10-09T06:09:13;147751.03;;;14.52;66.92
6938;BME280;40040;42.706;23.372;2023-10-09T06:12:15;147725.06;;;14.41;67.04
6938;BME280;40040;42.706;23.372;2023-10-09T06:14:59;147798.06;;;14.71;65.56
6938;BME280;40040;42.706;23.372;2023-10-09T06:17:44;147786.91;;;14.66;63.85
6938;BME280;40040;42.706;23.372;2023-10-09T06:20:16;147830.22;;;14.84;63.12
6938;BME280;40040;42.706;23.372;2023-10-09T06:23:00;147863.63;;;14.98;62.43
6938;BME280;40040;42.706;23.372;2023-10-09T06:25:43;147902.00;;;15.13;61.82
6938;BME280;40040;42.706;23.372;2023-10-09T06:28:17;147887.16;;;15.07;60.12
6938;BME280;40040;42.706;23.372;2023-10-09T06:30:44;147941.63;;;15.29;59.99
6938;BME280;40040;42.706;23.372;2023-10-09T06:33:13;147954.00;;;15.34;59.54
6938;BME280;40040;42.706;23.372;2023-10-09T06:35:55;147930.50;;;15.25;58.85
6938;BME280;40040;42.706;23.372;2023-10-09T06:38:22;147988.72;;;15.48;58.42
6938;BME280;40040;42.706;23.372;2023-10-09T06:40:51;147980.06;;;15.45;57.46
6938;BME280;40040;42.706;23.372;2023-10-09T06:43:37;148009.78;;;15.57;56.79
6938;BME280;40040;42.706;23.372;2023-10-09T06:46:14;147973.91;;;15.42;56.43
6938;BME280;40040;42.706;23.372;2023-10-09T06:48:59;148030.88;;;15.65;56.15
6938;BME280;40040;42.706;23.372;2023-10-09T06:51:40;148063.06;;;15.78;55.11
6938;BME280;40040;42.706;23.372;2023-10-09T06:54:07;148077.94;;;15.85;55.36
6938;BME280;40040;42.706;23.372;2023-10-09T06:56:36;148087.81;;;15.89;54.76
6938;BME280;40040;42.706;23.372;2023-10-09T06:59:21;148097.75;;;15.93;54.40
6938;BME280;40040;42.706;23.372;2023-10-09T07:01:49;148117.53;;;16.01;54.26
6938;BME280;40040;42.706;23.372;2023-10-09T07:04:50;148101.44;;;15.94;54.08
6938;BME280;40040;42.706;23.372;2023-10-09T07:07:20;148077.94;;;15.85;53.00
6938;BME280;40040;42.706;23.372;2023-10-09T07:09:51;148043.25;;;15.70;53.51
6938;BME280;40040;42.706;23.372;2023-10-09T07:12:39;148108.88;;;15.97;53.18
6938;BME280;40040;42.706;23.372;2023-10-09T07:15:10;148107.66;;;15.97;51.71
6938;BME280;40040;42.706;23.372;2023-10-09T07:17:54;148144.81;;;16.12;52.19
6938;BME280;40040;42.706;23.372;2023-10-09T07:20:21;148169.59;;;16.22;51.87
6938;BME280;40040;42.706;23.372;2023-10-09T07:23:10;148167.13;;;16.21;51.01
6938;BME280;40040;42.706;23.372;2023-10-09T07:25:41;148193.16;;;16.31;50.24
6938;BME280;40040;42.706;23.372;2023-10-09T07:28:10;148214.22;;;16.40;49.51
6938;BME280;40040;42.706;23.372;2023-10-09T07:31:02;148224.13;;;16.44;49.05
6938;BME280;40040;42.706;23.372;2023-10-09T07:33:29;148268.78;;;16.62;48.47
6938;BME280;40040;42.706;23.372;2023-10-09T07:36:17;148298.50;;;16.74;48.05
6938;BME280;40040;42.706;23.372;2023-10-09T07:38:58;148325.81;;;16.85;45.75
6938;BME280;40040;42.706;23.372;2023-10-09T07:41:31;148310.91;;;16.79;46.13
6938;BME280;40040;42.706;23.372;2023-10-09T07:44:06;148346.88;;;16.94;46.36
6938;BME280;40040;42.706;23.372;2023-10-09T07:47:02;148367.94;;;17.02;45.79
6938;BME280;40040;42.706;23.372;2023-10-09T07:49:48;148385.31;;;17.09;43.97
6938;BME280;40040;42.706;23.372;2023-10-09T07:52:17;148390.25;;;17.11;44.11
6938;BME280;40040;42.706;23.372;2023-10-09T07:54:48;148417.56;;;17.22;43.83
6938;BME280;40040;42.706;23.372;2023-10-09T07:57:27;148415.06;;;17.21;43.28
6938;BME280;40040;42.706;23.372;2023-10-09T07:59:55;148456.00;;;17.38;42.72
6938;BME280;40040;42.706;23.372;2023-10-09T08:02:37;148429.94;;;17.27;41.67
6938;BME280;40040;42.706;23.372;2023-10-09T08:05:04;148397.69;;;17.14;41.79
6938;BME280;40040;42.706;23.372;2023-10-09T08:07:32;148511.84;;;17.60;42.50
6938;BME280;40040;42.706;23.372;2023-10-09T08:10:03;148554.00;;;17.77;40.68
6938;BME280;40040;42.706;23.372;2023-10-09T08:12:48;148495.75;;;17.54;39.82
6938;BME280;40040;42.706;23.372;2023-10-09T08:15:25;148489.50;;;17.51;40.01
6938;BME280;40040;42.706;23.372;2023-10-09T08:18:00;148530.41;;;17.68;39.25
6938;BME280;40040;42.706;23.372;2023-10-09T08:20:36;148552.75;;;17.77;38.76
6938;BME280;40040;42.706;23.372;2023-10-09T08:23:31;148537.91;;;17.71;38.29
6938;BME280;40040;42.706;23.372;2023-10-09T08:25:59;148578.81;;;17.87;38.49
6938;BME280;40040;42.706;23.372;2023-10-09T08:28:38;148612.28;;;18.01;37.49
6938;BME280;40040;42.706;23.372;2023-10-09T08:31:09;148643.31;;;18.14;38.20
6938;BME280;40040;42.706;23.372;2023-10-09T08:33:59;148668.13;;;18.24;38.44
6938;BME280;40040;42.706;23.372;2023-10-09T08:36:28;148692.97;;;18.34;38.33
6938;BME280;40040;42.706;23.372;2023-10-09T08:39:01;148751.34;;;18.57;38.83
6938;BME280;40040;42.706;23.372;2023-10-09T08:41:42;148814.63;;;18.83;38.48
6938;BME280;40040;42.706;23.372;2023-10-09T08:44:11;148844.47;;;18.95;36.47
6938;BME280;40040;42.706;23.372;2023-10-09T08:46:42;148900.34;;;19.18;36.17
6938;BME280;40040;42.706;23.372;2023-10-09T08:49:10;148945.03;;;19.36;35.92
6938;BME280;40040;42.706;23.372;2023-10-09T08:51:37;148978.56;;;19.49;36.26
6938;BME280;40040;42.706;23.372;2023-10-09T08:54:06;149018.31;;;19.65;35.62
6938;BME280;40040;42.706;23.372;2023-10-09T08:56:36;149045.66;;;19.76;35.21
6938;BME280;40040;42.706;23.372;2023-10-09T08:59:10;149094.13;;;19.96;34.49
6938;BME280;40040;42.706;23.372;2023-10-09T09:01:37;149173.66;;;20.28;35.62
6938;BME280;40040;42.706;23.372;2023-10-09T09:04:07;149194.78;;;20.37;35.15
6938;BME280;40040;42.706;23.372;2023-10-09T09:06:37;149247.00;;;20.58;34.64
6938;BME280;40040;42.706;23.372;2023-10-09T09:09:10;149273.09;;;20.68;34.43
6938;BME280;40040;42.706;23.372;2023-10-09T09:11:40;149319.13;;;20.87;33.70
6938;BME280;40040;42.706;23.372;2023-10-09T09:14:14;149342.72;;;20.96;32.81
6938;BME280;40040;42.706;23.372;2023-10-09T09:16:45;149283.03;;;20.72;33.05
6938;BME280;40040;42.706;23.372;2023-10-09T09:19:15;149358.91;;;21.03;32.92
6938;BME280;40040;42.706;23.372;2023-10-09T09:21:48;149230.84;;;20.51;33.06
6938;BME280;40040;42.706;23.372;2023-10-09T09:24:20;149120.22;;;20.06;33.87
6938;BME280;40040;42.706;23.372;2023-10-09T09:26:57;149202.28;;;20.40;34.03
6938;BME280;40040;42.706;23.372;2023-10-09T09:29:40;149248.25;;;20.58;31.39
6938;BME280;40040;42.706;23.372;2023-10-09T09:32:09;149310.41;;;20.83;31.69
6938;BME280;40040;42.706;23.372;2023-10-09T09:34:49;149448.47;;;21.39;31.70
6938;BME280;40040;42.706;23.372;2023-10-09T09:37:20;149561.66;;;21.85;30.61
6938;BME280;40040;42.706;23.372;2023-10-09T09:39:47;149640.03;;;22.16;29.71
6938;BME280;40040;42.706;23.372;2023-10-09T09:42:17;149693.56;;;22.38;30.37
6938;BME280;40040;42.706;23.372;2023-10-09T09:44:51;149775.75;;;22.71;29.47
6938;BME280;40040;42.706;23.372;2023-10-09T09:47:18;149890.25;;;23.17;29.12
6938;BME280;40040;42.706;23.372;2023-10-09T09:49:54;149920.16;;;23.29;28.71
6938;BME280;40040;42.706;23.372;2023-10-09T09:52:26;150014.81;;;23.68;28.04
6938;BME280;40040;42.706;23.372;2023-10-09T09:54:55;149819.31;;;22.89;29.31
6938;BME280;40040;42.706;23.372;2023-10-09T09:57:24;149903.94;;;23.23;28.54
6938;BME280;40040;42.706;23.372;2023-10-09T09:59:52;149920.16;;;23.29;29.29
6938;BME280;40040;42.706;23.372;2023-10-09T10:02:27;150032.25;;;23.75;28.86
6938;BME280;40040;42.706;23.372;2023-10-09T10:05:05;149891.50;;;23.18;27.14
6938;BME280;40040;42.706;23.372;2023-10-09T10:07:33;149821.78;;;22.90;27.36
6938;BME280;40040;42.706;23.372;2023-10-09T10:10:39;149983.72;;;23.55;27.55
6938;BME280;40040;42.706;23.372;2023-10-09T10:13:15;150098.31;;;24.01;27.31
6938;BME280;40040;42.706;23.372;2023-10-09T10:16:06;150085.81;;;23.96;26.00
6938;BME280;40040;42.706;23.372;2023-10-09T10:18:55;150088.28;;;23.97;26.06
6938;BME280;40040;42.706;23.372;2023-10-09T10:21:27;150155.66;;;24.24;26.69
6938;BME280;40040;42.706;23.372;2023-10-09T10:24:42;150251.59;;;24.63;26.55
6938;BME280;40040;42.706;23.372;2023-10-09T10:27:21;150207.97;;;24.45;26.06
6938;BME280;40040;42.706;23.372;2023-10-09T10:30:29;150289.00;;;24.78;25.52
6938;BME280;40040;42.706;23.372;2023-10-09T10:33:00;150304.00;;;24.84;25.18
6938;BME280;40040;42.706;23.372;2023-10-09T10:35:35;150350.09;;;25.03;25.80
6938;BME280;40040;42.706;23.372;2023-10-09T10:38:28;150506.00;;;25.66;24.41
6938;BME280;40040;42.706;23.372;2023-10-09T10:41:11;150594.56;;;26.01;24.53
6938;BME280;40040;42.706;23.372;2023-10-09T10:43:40;150518.44;;;25.71;24.35
6938;BME280;40040;42.706;23.372;2023-10-09T10:46:26;150532.19;;;25.76;24.73
6938;BME280;40040;42.706;23.372;2023-10-09T10:49:05;150509.72;;;25.67;23.99
6938;BME280;40040;42.706;23.372;2023-10-09T10:51:46;150499.72;;;25.63;25.06
6938;BME280;40040;42.706;23.372;2023-10-09T10:54:24;150550.91;;;25.84;24.65
6938;BME280;40040;42.706;23.372;2023-10-09T10:57:15;150629.50;;;26.15;23.06
6938;BME280;40040;42.706;23.372;2023-10-09T10:59:54;150688.16;;;26.39;23.44
6938;BME280;40040;42.706;23.372;2023-10-09T11:02:43;150819.22;;;26.92;22.81
6938;BME280;40040;42.706;23.372;2023-10-09T11:05:09;150891.59;;;27.21;22.66
6938;BME280;40040;42.706;23.372;2023-10-09T11:07:50;150776.75;;;26.75;22.06
6938;BME280;40040;42.706;23.372;2023-10-09T11:10:23;150650.75;;;26.24;23.20
6938;BME280;40040;42.706;23.372;2023-10-09T11:12:58;150716.81;;;26.50;23.17
6938;BME280;40040;42.706;23.372;2023-10-09T11:15:54;150771.81;;;26.73;23.08
6938;BME280;40040;42.706;23.372;2023-10-09T11:18:40;150789.28;;;26.80;23.56
6938;BME280;40040;42.706;23.372;2023-10-09T11:21:15;150899.06;;;27.24;23.63
6938;BME280;40040;42.706;23.372;2023-10-09T11:23:58;151020.22;;;27.72;22.59
6938;BME280;40040;42.706;23.372;2023-10-09T11:26:47;151068.97;;;27.92;22.60
6938;BME280;40040;42.706;23.372;2023-10-09T11:29:21;151073.97;;;27.94;22.17
6938;BME280;40040;42.706;23.372;2023-10-09T11:31:59;151110.22;;;28.09;22.33
6938;BME280;40040;42.706;23.372;2023-10-09T11:34:28;150886.59;;;27.19;22.29
6938;BME280;40040;42.706;23.372;2023-10-09T11:36:59;150842.91;;;27.01;22.77
6938;BME280;40040;42.706;23.372;2023-10-09T11:39:35;150852.91;;;27.05;23.26
6938;BME280;40040;42.706;23.372;2023-10-09T11:42:07;150909.06;;;27.28;22.78
6938;BME280;40040;42.706;23.372;2023-10-09T11:44:38;151026.47;;;27.75;22.58
6938;BME280;40040;42.706;23.372;2023-10-09T11:47:11;151111.44;;;28.09;22.41
6938;BME280;40040;42.706;23.372;2023-10-09T11:49:50;151168.91;;;28.32;22.77
6938;BME280;40040;42.706;23.372;2023-10-09T11:52:24;151237.63;;;28.60;22.24
6938;BME280;40040;42.706;23.372;2023-10-09T11:55:03;151268.88;;;28.72;21.94
6938;BME280;40040;42.706;23.372;2023-10-09T11:57:33;151303.88;;;28.87;20.92
6938;BME280;40040;42.706;23.372;2023-10-09T12:00:10;151021.47;;;27.73;22.22
6938;BME280;40040;42.706;23.372;2023-10-09T12:02:50;150919.13;;;27.32;22.92
6938;BME280;40040;42.706;23.372;2023-10-09T12:05:17;150871.66;;;27.13;22.81
6938;BME280;40040;42.706;23.372;2023-10-09T12:07:44;150949.09;;;27.44;22.83
6938;BME280;40040;42.706;23.372;2023-10-09T12:10:11;150985.25;;;27.58;24.67
6938;BME280;40040;42.706;23.372;2023-10-09T12:12:41;151022.75;;;27.73;23.19
6938;BME280;40040;42.706;23.372;2023-10-09T12:15:14;151086.47;;;27.99;23.55
6938;BME280;40040;42.706;23.372;2023-10-09T12:17:44;151157.66;;;28.28;22.74
6938;BME280;40040;42.706;23.372;2023-10-09T12:20:13;151216.41;;;28.51;22.24
6938;BME280;40040;42.706;23.372;2023-10-09T12:22:57;151191.38;;;28.41;22.36
6938;BME280;40040;42.706;23.372;2023-10-09T12:25:24;151073.97;;;27.94;22.18
6938;BME280;40040;42.706;23.372;2023-10-09T12:27:53;150967.78;;;27.51;23.12
6938;BME280;40040;42.706;23.372;2023-10-09T12:30:23;150934.09;;;27.38;22.69
6938;BME280;40040;42.706;23.372;2023-10-09T12:32:53;150849.16;;;27.04;22.90
6938;BME280;40040;42.706;23.372;2023-10-09T12:35:22;150766.81;;;26.71;23.04
6938;BME280;40040;42.706;23.372;2023-10-09T12:37:51;150720.56;;;26.52;23.54
6938;BME280;40040;42.706;23.372;2023-10-09T12:40:23;150627.00;;;26.14;23.45
6938;BME280;40040;42.706;23.372;2023-10-09T12:42:55;150699.34;;;26.43;23.45
6938;BME280;40040;42.706;23.372;2023-10-09T12:45:24;150689.41;;;26.39;23.68
6938;BME280;40040;42.706;23.372;2023-10-09T12:47:53;150449.88;;;25.43;24.00
6938;BME280;40040;42.706;23.372;2023-10-09T12:50:24;150447.34;;;25.42;24.43
6938;BME280;40040;42.706;23.372;2023-10-09T12:52:57;150360.09;;;25.07;25.70
6938;BME280;40040;42.706;23.372;2023-10-09T12:55:28;150297.75;;;24.82;25.05
6938;BME280;40040;42.706;23.372;2023-10-09T12:58:02;150250.34;;;24.63;24.46
6938;BME280;40040;42.706;23.372;2023-10-09T13:00:35;150264.06;;;24.68;24.95
6938;BME280;40040;42.706;23.372;2023-10-09T13:03:08;150195.53;;;24.40;25.67
6938;BME280;40040;42.706;23.372;2023-10-09T13:05:46;150220.44;;;24.50;26.10
6938;BME280;40040;42.706;23.372;2023-10-09T13:08:21;150198.00;;;24.41;25.28
6938;BME280;40040;42.706;23.372;2023-10-09T13:10:57;150179.28;;;24.34;25.75
6938;BME280;40040;42.706;23.372;2023-10-09T13:13:31;150175.56;;;24.32;25.66
6938;BME280;40040;42.706;23.372;2023-10-09T13:16:10;150118.28;;;24.09;25.31
6938;BME280;40040;42.706;23.372;2023-10-09T13:18:39;150114.50;;;24.08;26.55
6938;BME280;40040;42.706;23.372;2023-10-09T13:21:06;150108.31;;;24.05;25.38
6938;BME280;40040;42.706;23.372;2023-10-09T13:23:33;150123.22;;;24.11;24.95
6938;BME280;40040;42.706;23.372;2023-10-09T13:26:12;150168.09;;;24.29;26.33
6938;BME280;40040;42.706;23.372;2023-10-09T13:28:51;150143.19;;;24.19;24.89